Terminal Aerodrome Forecast
Issued by NWS Sioux Falls, SD

Home | Current Version | Previous Version | Graphics & Text | Print | Product List | Glossary Off
Versions: 1 2 3 4 5 6 7 8 9 10 11 12 13

096
FTUS43 KFSD 211720
TAFHON
TAF
KHON 211720Z 2118/2218 30012KT P6SM SCT090
     FM220100 35005KT P6SM SKC
     FM220500 VRB02KT P6SM SKC
     FM221600 14007KT P6SM SKC=

USA.gov is the U.S. government's official web portal to all federal, state and local government web resources and services.